Time;durP1;ratioP1;P1;durP2;ratioP2;P2;SDS_P1;SDS_P2;PMS_P1;PMS_P2;Temp;Humidity;BMP_temperature;BMP_pressure;BME280_temperature;BME280_humidity;BME280_pressure;Samples;Min_cycle;Max_cycle;Signal;HPM_P1;HPM_P2
2022/06/25 00:01:28;;;;;;;9.57;6.73;;;18.60;93.70;;;;;;4865579;29;20214;-66
2022/06/25 00:03:54;;;;;;;11.10;6.57;;;18.60;94.00;;;;;;4871200;29;20220;-66
2022/06/25 00:06:21;;;;;;;10.47;7.10;;;18.60;93.80;;;;;;4848355;29;20193;-66
2022/06/25 00:08:48;;;;;;;13.70;8.47;;;18.60;93.70;;;;;;4865455;29;20257;-66
2022/06/25 00:14:10;;;;;;;14.93;8.27;;;18.60;93.70;;;;;;4901379;29;20222;-66
2022/06/25 00:16:36;;;;;;;12.17;9.00;;;18.60;93.60;;;;;;4876659;29;20196;-66
2022/06/25 00:19:03;;;;;;;16.27;8.50;;;18.60;93.60;;;;;;4853507;29;20256;-66
2022/06/25 00:21:29;;;;;;;12.63;9.43;;;18.60;92.60;;;;;;4866208;29;20204;-66
2022/06/25 00:23:55;;;;;;;11.53;8.40;;;18.60;93.10;;;;;;4882343;29;20227;-65
2022/06/25 00:26:21;;;;;;;13.30;8.23;;;18.70;93.40;;;;;;4851030;29;20244;-66
2022/06/25 00:28:47;;;;;;;14.50;8.37;;;18.70;93.10;;;;;;4879183;29;20224;-66
2022/06/25 00:31:12;;;;;;;13.20;8.23;;;18.60;93.40;;;;;;4860466;29;20203;-66
2022/06/25 00:33:38;;;;;;;16.13;9.33;;;18.70;93.60;;;;;;4884604;29;20196;-66
2022/06/25 00:36:04;;;;;;;14.23;7.87;;;18.60;93.50;;;;;;4869513;29;20200;-66
2022/06/25 00:38:29;;;;;;;11.33;7.80;;;18.60;93.60;;;;;;4859931;29;20200;-66
2022/06/25 00:40:55;;;;;;;10.00;7.67;;;18.70;94.00;;;;;;4868815;29;20203;-66
2022/06/25 00:43:21;;;;;;;11.40;7.60;;;18.70;93.90;;;;;;4865985;29;20220;-66
2022/06/25 00:45:46;;;;;;;12.20;8.30;;;18.60;93.60;;;;;;4877700;29;20227;-66
2022/06/25 00:48:12;;;;;;;15.30;8.70;;;18.60;93.90;;;;;;4878435;29;20203;-66
2022/06/25 00:50:38;;;;;;;10.10;7.67;;;18.60;94.00;;;;;;4853367;29;20196;-66
2022/06/25 00:53:04;;;;;;;12.17;7.77;;;18.60;93.60;;;;;;4853495;29;20200;-66
2022/06/25 00:55:31;;;;;;;10.73;7.63;;;18.50;93.40;;;;;;4878288;29;20192;-66
2022/06/25 00:58:00;;;;;;;12.47;7.73;;;18.50;93.60;;;;;;4866281;29;20208;-66
2022/06/25 01:00:26;;;;;;;9.47;6.00;;;18.50;93.20;;;;;;4875208;29;20188;-66
2022/06/25 01:02:52;;;;;;;11.90;7.00;;;18.50;92.90;;;;;;4884373;29;20216;-66
2022/06/25 01:05:18;;;;;;;10.30;7.13;;;18.50;93.00;;;;;;4852639;29;20297;-66
2022/06/25 01:07:46;;;;;;;11.10;6.83;;;18.50;92.90;;;;;;4868714;29;20200;-66
2022/06/25 01:10:13;;;;;;;10.37;6.80;;;18.50;92.50;;;;;;4883251;29;20187;-66
2022/06/25 01:12:39;;;;;;;9.97;7.33;;;18.40;91.40;;;;;;4865391;29;20209;-66
2022/06/25 01:15:18;;;;;;;10.80;7.87;;;18.40;92.20;;;;;;4852578;29;20291;-66
2022/06/25 01:17:51;;;;;;;12.93;6.63;;;18.40;92.70;;;;;;4864789;29;20204;-66
2022/06/25 01:20:19;;;;;;;9.13;5.97;;;18.30;92.10;;;;;;4877061;29;20224;-66
2022/06/25 01:22:45;;;;;;;10.23;5.50;;;18.40;91.90;;;;;;4883850;29;20216;-66
2022/06/25 01:25:12;;;;;;;12.07;6.87;;;18.30;91.40;;;;;;4883459;29;20196;-66
2022/06/25 01:27:38;;;;;;;9.23;5.90;;;18.30;92.20;;;;;;4867924;29;20324;-66
2022/06/25 01:30:06;;;;;;;9.00;6.20;;;18.30;91.70;;;;;;4883400;29;20216;-66
2022/06/25 01:32:32;;;;;;;8.80;5.93;;;18.20;92.10;;;;;;4883422;29;20195;-66
2022/06/25 01:34:58;;;;;;;10.87;6.37;;;18.20;92.30;;;;;;4861076;29;20187;-66
2022/06/25 01:37:24;;;;;;;12.20;6.43;;;18.20;92.50;;;;;;4875131;29;20309;-66
2022/06/25 01:39:56;;;;;;;11.07;6.70;;;18.10;92.60;;;;;;4848214;29;20196;-66
2022/06/25 01:45:09;;;;;;;8.57;5.93;;;18.10;92.90;;;;;;4884520;29;20239;-66
2022/06/25 01:47:35;;;;;;;6.47;5.83;;;18.00;92.70;;;;;;4865416;29;20192;-66
2022/06/25 01:50:01;;;;;;;8.87;5.90;;;18.00;92.70;;;;;;4873437;29;20192;-66
2022/06/25 01:52:26;;;;;;;9.87;5.23;;;17.90;92.40;;;;;;4850510;29;20269;-66
2022/06/25 01:54:52;;;;;;;10.07;5.20;;;17.80;92.30;;;;;;4849331;29;20275;-66
2022/06/25 01:57:18;;;;;;;8.57;5.77;;;17.80;92.50;;;;;;4861762;29;20208;-66
2022/06/25 01:59:45;;;;;;;10.83;5.07;;;17.80;92.60;;;;;;4867873;29;20195;-66
2022/06/25 02:02:10;;;;;;;10.93;4.00;;;17.80;92.30;;;;;;4868439;29;20228;-66
2022/06/25 02:04:36;;;;;;;3.33;2.60;;;17.80;92.50;;;;;;4863330;29;20283;-66
2022/06/25 02:07:02;;;;;;;6.80;3.37;;;17.80;92.50;;;;;;4864588;29;20287;-66
2022/06/25 02:09:28;;;;;;;4.73;2.53;;;17.80;91.90;;;;;;4848272;29;20192;-66
2022/06/25 02:11:53;;;;;;;3.37;2.40;;;17.80;91.40;;;;;;4865946;29;20251;-66
2022/06/25 02:14:19;;;;;;;2.23;1.73;;;17.80;91.50;;;;;;4858112;29;20203;-66
2022/06/25 02:16:45;;;;;;;3.80;2.47;;;17.80;91.20;;;;;;4849019;29;20192;-66
2022/06/25 02:19:10;;;;;;;1.57;1.40;;;17.80;91.50;;;;;;4858036;29;20199;-66
2022/06/25 02:21:36;;;;;;;3.30;1.93;;;17.80;89.10;;;;;;4857368;29;20282;-66
2022/06/25 02:24:02;;;;;;;2.43;1.63;;;17.70;90.80;;;;;;4852149;29;20247;-66
2022/06/25 02:26:27;;;;;;;3.43;1.27;;;17.70;90.50;;;;;;4864479;29;20244;-66
2022/06/25 02:28:53;;;;;;;1.83;1.30;;;17.70;90.10;;;;;;4867566;29;20194;-66
2022/06/25 02:31:19;;;;;;;3.10;1.47;;;17.60;89.80;;;;;;4853215;29;20211;-65
2022/06/25 02:33:44;;;;;;;1.53;1.33;;;17.60;89.90;;;;;;4864085;29;20198;-66
2022/06/25 02:36:10;;;;;;;4.17;1.07;;;17.50;90.00;;;;;;4882388;29;20200;-66
2022/06/25 02:38:36;;;;;;;2.20;1.10;;;17.40;90.00;;;;;;4851651;29;20221;-66
2022/06/25 02:41:02;;;;;;;2.20;1.30;;;17.40;89.80;;;;;;4882668;29;20227;-65
2022/06/25 02:43:27;;;;;;;4.57;1.20;;;17.30;89.90;;;;;;4849905;29;20267;-66
2022/06/25 02:45:53;;;;;;;3.77;1.17;;;17.30;90.50;;;;;;4867094;29;20204;-66
2022/06/25 02:48:19;;;;;;;3.27;0.90;;;17.30;90.30;;;;;;4861802;29;20239;-65
2022/06/25 02:50:45;;;;;;;3.00;0.97;;;17.20;90.00;;;;;;4867013;29;20291;-66
2022/06/25 02:53:11;;;;;;;2.60;1.10;;;17.20;90.30;;;;;;4848644;29;20191;-65
2022/06/25 03:01:05;;;;;;;2.30;0.90;;;17.20;90.70;;;;;;4885103;29;20248;-66
2022/06/25 03:03:31;;;;;;;3.20;1.13;;;17.10;91.20;;;;;;4848891;29;20216;-66
2022/06/25 03:05:56;;;;;;;1.67;1.10;;;17.20;91.10;;;;;;4865785;29;20188;-66
2022/06/25 03:08:22;;;;;;;0.93;0.93;;;17.10;91.40;;;;;;4867135;29;20188;-66
2022/06/25 03:10:48;;;;;;;1.80;1.10;;;17.10;90.90;;;;;;4882057;29;20216;-65
2022/06/25 03:13:13;;;;;;;1.20;1.10;;;17.10;90.50;;;;;;4882165;29;20195;-66
2022/06/25 03:15:39;;;;;;;1.20;1.00;;;17.10;90.60;;;;;;4864021;29;20201;-66
2022/06/25 03:18:05;;;;;;;1.60;0.93;;;17.10;90.70;;;;;;4880630;29;20226;-66
2022/06/25 03:20:31;;;;;;;1.33;1.03;;;17.00;90.40;;;;;;4866256;29;20199;-66
2022/06/25 03:22:57;;;;;;;1.43;1.00;;;16.90;90.50;;;;;;4882215;29;20219;-66
2022/06/25 03:25:23;;;;;;;3.33;1.20;;;16.90;90.90;;;;;;4866297;29;20245;-66
2022/06/25 03:27:49;;;;;;;1.57;1.03;;;17.00;91.00;;;;;;4866417;29;20266;-66
2022/06/25 03:30:14;;;;;;;1.53;0.70;;;16.90;91.50;;;;;;4846227;29;20288;-66
2022/06/25 03:32:40;;;;;;;1.47;0.80;;;17.00;90.10;;;;;;4872910;29;20200;-65
2022/06/25 03:35:06;;;;;;;0.90;0.80;;;17.00;90.20;;;;;;4869945;29;20282;-66
2022/06/25 03:37:32;;;;;;;0.97;0.63;;;17.00;90.20;;;;;;4866427;29;20199;-65
2022/06/25 03:39:58;;;;;;;3.13;1.00;;;16.90;90.40;;;;;;4850621;29;20200;-66
2022/06/25 03:42:24;;;;;;;2.80;1.07;;;17.00;90.60;;;;;;4866670;29;20208;-66
2022/06/25 03:44:49;;;;;;;2.03;0.80;;;16.90;90.90;;;;;;4841201;29;20225;-66
2022/06/25 03:47:15;;;;;;;2.73;0.80;;;17.00;90.90;;;;;;4859128;29;20199;-65
2022/06/25 03:49:41;;;;;;;1.77;0.80;;;17.00;91.00;;;;;;4862197;29;20193;-65
2022/06/25 03:52:07;;;;;;;0.53;0.50;;;17.00;90.80;;;;;;4866128;29;20204;-65
2022/06/25 03:54:32;;;;;;;0.93;0.47;;;17.00;89.20;;;;;;4857293;29;20265;-65
2022/06/25 03:56:58;;;;;;;0.77;0.70;;;17.00;89.90;;;;;;4869668;29;20220;-66
2022/06/25 03:59:24;;;;;;;1.17;0.40;;;17.10;89.70;;;;;;4869735;29;20203;-65
2022/06/25 04:01:49;;;;;;;0.30;0.30;;;17.10;87.10;;;;;;4854373;29;20227;-66
2022/06/25 04:04:15;;;;;;;1.70;0.23;;;17.20;88.70;;;;;;4865141;29;20291;-66
2022/06/25 04:06:41;;;;;;;1.73;0.30;;;17.20;88.40;;;;;;4863189;29;20180;-66
2022/06/25 04:09:07;;;;;;;0.77;0.63;;;17.30;85.90;;;;;;4867117;29;20191;-66
2022/06/25 04:11:32;;;;;;;0.33;0.33;;;17.30;87.20;;;;;;4866821;29;20196;-66
2022/06/25 04:13:58;;;;;;;1.53;0.60;;;17.30;84.00;;;;;;4849547;29;20195;-66
2022/06/25 04:16:24;;;;;;;2.87;0.37;;;17.40;83.60;;;;;;4882728;29;20195;-66
2022/06/25 04:18:50;;;;;;;1.30;0.40;;;17.50;82.70;;;;;;4867480;29;20229;-66
2022/06/25 04:21:16;;;;;;;0.30;0.27;;;17.50;81.30;;;;;;4880332;29;20207;-66
2022/06/25 04:23:41;;;;;;;0.30;0.30;;;17.60;81.90;;;;;;4866233;29;20232;-66
2022/06/25 04:26:07;;;;;;;0.80;0.40;;;17.60;81.90;;;;;;4868855;29;20235;-66
2022/06/25 04:31:17;;;;;;;0.30;0.30;;;17.60;83.60;;;;;;4875443;29;20260;-66
2022/06/25 04:33:43;;;;;;;0.40;0.23;;;17.60;82.70;;;;;;4875996;29;20263;-66
2022/06/25 04:36:08;;;;;;;0.30;0.30;;;17.60;84.70;;;;;;4845919;29;20202;-66
2022/06/25 04:38:34;;;;;;;0.20;0.20;;;17.60;83.50;;;;;;4866080;29;20191;-66
2022/06/25 04:41:00;;;;;;;0.17;0.17;;;17.60;83.20;;;;;;4842992;29;20188;-67
2022/06/25 04:43:25;;;;;;;0.30;0.30;;;17.60;83.90;;;;;;4862382;29;20219;-66
2022/06/25 04:45:51;;;;;;;0.90;0.20;;;17.60;83.00;;;;;;4854472;29;20238;-66
2022/06/25 04:48:17;;;;;;;0.60;0.30;;;17.60;84.40;;;;;;4851459;29;20214;-67
2022/06/25 04:50:43;;;;;;;0.53;0.40;;;17.60;84.80;;;;;;4862806;29;20194;-66
2022/06/25 04:53:09;;;;;;;0.30;0.30;;;17.60;85.90;;;;;;4881604;29;20192;-66
2022/06/25 04:55:35;;;;;;;1.20;0.40;;;17.60;86.50;;;;;;4865524;29;20196;-66
2022/06/25 04:58:01;;;;;;;0.80;0.30;;;17.60;85.80;;;;;;4888491;29;20196;-66
2022/06/25 05:00:27;;;;;;;2.00;0.67;;;17.50;84.90;;;;;;4849013;29;20197;-66
2022/06/25 05:02:52;;;;;;;0.37;0.37;;;17.60;86.40;;;;;;4878746;29;20239;-66
2022/06/25 05:05:18;;;;;;;0.40;0.40;;;17.50;86.80;;;;;;4868473;29;20206;-66
2022/06/25 05:07:43;;;;;;;0.83;0.40;;;17.50;85.40;;;;;;4857264;29;20196;-66
2022/06/25 05:10:09;;;;;;;2.33;0.50;;;17.60;84.30;;;;;;4852447;29;20196;-66
2022/06/25 05:15:19;;;;;;;0.33;0.33;;;17.70;83.20;;;;;;4877834;29;20248;-67
2022/06/25 05:17:45;;;;;;;0.30;0.30;;;17.80;83.40;;;;;;4880067;29;20195;-66
2022/06/25 05:20:11;;;;;;;0.40;0.40;;;17.70;83.60;;;;;;4858115;29;20264;-66
2022/06/25 05:22:37;;;;;;;1.50;0.20;;;17.80;84.00;;;;;;4877568;29;20216;-67
2022/06/25 05:25:03;;;;;;;0.40;0.20;;;17.80;83.70;;;;;;4868381;29;20187;-65
2022/06/25 05:27:29;;;;;;;0.43;0.20;;;17.80;82.00;;;;;;4880281;29;20333;-66
2022/06/25 05:29:54;;;;;;;0.40;0.30;;;17.80;81.90;;;;;;4867734;29;20223;-66
2022/06/25 05:32:20;;;;;;;2.17;0.30;;;17.80;83.30;;;;;;4868588;29;20206;-67
2022/06/25 05:34:46;;;;;;;1.07;0.10;;;17.80;82.00;;;;;;4867775;29;20191;-67
2022/06/25 05:37:11;;;;;;;1.13;0.17;;;17.90;82.80;;;;;;4852506;29;20260;-66
2022/06/25 05:39:37;;;;;;;0.00;0.00;;;17.90;81.20;;;;;;4868063;29;20200;-66
2022/06/25 05:42:03;;;;;;;1.40;0.10;;;18.00;75.00;;;;;;4864984;29;20191;-63
2022/06/25 05:44:29;;;;;;;0.00;0.00;;;18.20;74.10;;;;;;4867939;29;20219;-65
2022/06/25 05:46:55;;;;;;;0.10;0.10;;;18.20;73.30;;;;;;4866619;29;20193;-66
2022/06/25 05:49:20;;;;;;;0.20;0.20;;;18.20;73.70;;;;;;4868115;29;20194;-65
2022/06/25 05:51:46;;;;;;;0.27;0.10;;;18.30;72.20;;;;;;4874812;29;20289;-66
2022/06/25 05:54:12;;;;;;;0.33;0.20;;;18.30;72.40;;;;;;4864724;29;20210;-64
2022/06/25 05:56:38;;;;;;;0.10;0.10;;;18.20;75.10;;;;;;4878178;29;20209;-66
2022/06/25 05:59:03;;;;;;;0.10;0.10;;;18.20;73.90;;;;;;4883369;29;20200;-65
2022/06/25 06:01:30;;;;;;;0.10;0.10;;;18.20;77.80;;;;;;4867749;29;20191;-65
2022/06/25 06:03:56;;;;;;;0.57;0.20;;;18.20;77.30;;;;;;4867146;29;20272;-64
2022/06/25 06:06:21;;;;;;;0.33;0.20;;;18.10;78.40;;;;;;4856154;29;20193;-64
2022/06/25 06:08:47;;;;;;;0.10;0.10;;;18.20;79.60;;;;;;4861187;29;20191;-64
2022/06/25 06:11:13;;;;;;;0.10;0.10;;;18.10;79.50;;;;;;4871685;29;20278;-67
2022/06/25 06:13:38;;;;;;;0.13;0.10;;;18.10;76.50;;;;;;4864478;29;20246;-67
2022/06/25 06:16:04;;;;;;;0.03;0.03;;;18.20;73.40;;;;;;4861634;29;20215;-67
2022/06/25 06:18:30;;;;;;;0.10;0.10;;;18.20;75.40;;;;;;4874660;29;20238;-66
2022/06/25 06:20:55;;;;;;;0.10;0.10;;;18.20;75.60;;;;;;4872910;29;20199;-66
2022/06/25 06:23:21;;;;;;;0.97;0.20;;;18.20;76.90;;;;;;4851271;29;20226;-67
2022/06/25 06:25:46;;;;;;;2.00;0.20;;;18.20;75.40;;;;;;4868511;29;20195;-67
2022/06/25 06:28:12;;;;;;;0.40;0.10;;;18.30;74.50;;;;;;4861038;29;20189;-66
2022/06/25 06:30:38;;;;;;;0.00;0.00;;;18.40;75.20;;;;;;4860116;29;20200;-66
2022/06/25 06:33:04;;;;;;;0.10;0.10;;;18.40;76.40;;;;;;4882201;29;20216;-66
2022/06/25 06:35:29;;;;;;;0.10;0.10;;;18.40;73.70;;;;;;4866190;29;20203;-66
2022/06/25 06:37:55;;;;;;;2.17;0.10;;;18.50;71.80;;;;;;4846781;29;20310;-66
2022/06/25 06:40:21;;;;;;;1.13;0.10;;;18.60;73.90;;;;;;4862840;29;20298;-66
2022/06/25 06:42:46;;;;;;;0.10;0.10;;;18.60;74.20;;;;;;4865320;29;20228;-66
2022/06/25 06:45:12;;;;;;;0.10;0.10;;;18.50;73.50;;;;;;4865051;29;20291;-66
2022/06/25 06:47:37;;;;;;;0.57;0.20;;;18.60;74.70;;;;;;4851494;29;20203;-65
2022/06/25 06:50:04;;;;;;;1.13;0.17;;;18.60;74.80;;;;;;4865390;29;20196;-66
2022/06/25 06:52:29;;;;;;;0.10;0.10;;;18.70;73.00;;;;;;4865000;29;20255;-66
2022/06/25 06:54:57;;;;;;;0.00;0.00;;;18.80;74.40;;;;;;4862418;29;20195;-65
2022/06/25 06:57:23;;;;;;;0.10;0.10;;;18.80;75.50;;;;;;4852533;29;20196;-66
2022/06/25 06:59:48;;;;;;;0.20;0.10;;;18.80;75.60;;;;;;4857485;29;20248;-65
2022/06/25 07:02:14;;;;;;;0.20;0.20;;;18.80;77.60;;;;;;4843140;29;20216;-65
2022/06/25 07:04:40;;;;;;;0.30;0.30;;;18.90;74.80;;;;;;4866452;29;20283;-66
2022/06/25 07:07:05;;;;;;;0.00;0.00;;;18.90;71.10;;;;;;4850888;29;20196;-66
2022/06/25 07:09:31;;;;;;;0.10;0.10;;;19.00;73.40;;;;;;4867196;29;20192;-67
2022/06/25 07:11:57;;;;;;;0.40;0.20;;;19.10;75.60;;;;;;4846866;29;20195;-68
2022/06/25 07:14:22;;;;;;;0.10;0.00;;;19.20;69.80;;;;;;4854674;29;20208;-70
2022/06/25 07:16:49;;;;;;;1.07;0.30;;;19.30;70.60;;;;;;4848298;29;20220;-70
2022/06/25 07:19:14;;;;;;;0.50;0.17;;;19.30;72.40;;;;;;4852511;29;20212;-70
2022/06/25 07:21:40;;;;;;;0.70;0.10;;;19.40;70.00;;;;;;4867996;29;20275;-69
2022/06/25 07:24:06;;;;;;;0.20;0.10;;;19.50;70.30;;;;;;4854821;29;20245;-68
2022/06/25 07:26:32;;;;;;;0.17;0.17;;;19.40;71.80;;;;;;4845975;29;20708;-69
2022/06/25 07:28:57;;;;;;;0.27;0.27;;;19.60;72.50;;;;;;4850984;29;20241;-69
2022/06/25 07:31:23;;;;;;;1.40;0.20;;;19.60;73.40;;;;;;4854043;29;20203;-69
2022/06/25 07:33:49;;;;;;;0.20;0.20;;;19.70;71.40;;;;;;4875955;29;20207;-68
2022/06/25 07:36:15;;;;;;;1.23;0.20;;;19.80;68.50;;;;;;4869555;29;20192;-68
2022/06/25 07:38:41;;;;;;;0.93;0.10;;;19.90;69.40;;;;;;4866735;29;20200;-68
2022/06/25 07:41:06;;;;;;;0.00;0.00;;;20.00;68.40;;;;;;4849022;29;20197;-68
2022/06/25 07:43:33;;;;;;;0.37;0.37;;;20.00;66.00;;;;;;4870911;29;20216;-68
2022/06/25 07:45:58;;;;;;;1.67;0.20;;;20.10;68.00;;;;;;4855354;29;20195;-68
2022/06/25 07:48:25;;;;;;;0.10;0.10;;;20.10;67.90;;;;;;4870242;29;20200;-68
2022/06/25 07:53:35;;;;;;;0.10;0.10;;;20.30;64.00;;;;;;4894611;29;20194;-69
2022/06/25 07:56:00;;;;;;;0.40;0.20;;;20.30;64.80;;;;;;4851335;29;20200;-69
2022/06/25 07:58:27;;;;;;;0.20;0.20;;;20.30;65.10;;;;;;4850961;29;20193;-69
2022/06/25 08:00:54;;;;;;;0.13;0.13;;;20.40;64.40;;;;;;4866766;29;20212;-69
2022/06/25 08:03:20;;;;;;;0.10;0.10;;;20.50;67.00;;;;;;4887152;29;20249;-69
2022/06/25 08:05:46;;;;;;;0.30;0.20;;;20.50;68.30;;;;;;4871269;29;20295;-68
2022/06/25 08:08:12;;;;;;;0.20;0.20;;;20.50;69.00;;;;;;4886479;29;20220;-65
2022/06/25 08:10:39;;;;;;;0.67;0.30;;;20.50;68.00;;;;;;4859685;29;20193;-62
2022/06/25 08:13:05;;;;;;;0.10;0.10;;;20.60;70.60;;;;;;4869401;29;20202;-62
2022/06/25 08:15:30;;;;;;;0.87;0.27;;;20.60;68.60;;;;;;4869249;29;20286;-62
2022/06/25 08:17:56;;;;;;;0.20;0.13;;;20.70;69.30;;;;;;4869060;29;20278;-62
2022/06/25 08:20:22;;;;;;;0.10;0.10;;;20.70;67.80;;;;;;4850538;29;20272;-65
2022/06/25 08:22:49;;;;;;;0.40;0.30;;;20.80;66.20;;;;;;4853475;29;20218;-64
2022/06/25 08:25:15;;;;;;;0.97;0.33;;;20.80;67.60;;;;;;4854393;29;20256;-63
2022/06/25 08:27:51;;;;;;;0.50;0.27;;;20.80;62.00;;;;;;4871707;29;20235;-63
2022/06/25 08:30:21;;;;;;;0.50;0.20;;;20.90;63.30;;;;;;4884782;29;20192;-62
2022/06/25 08:32:47;;;;;;;0.67;0.33;;;20.90;65.30;;;;;;4863602;29;20203;-62
2022/06/25 08:35:13;;;;;;;0.40;0.23;;;21.00;65.30;;;;;;4865951;29;20196;-62
2022/06/25 08:37:42;;;;;;;0.60;0.40;;;21.00;64.40;;;;;;4868748;29;20188;-62
2022/06/25 08:40:09;;;;;;;0.40;0.40;;;21.10;65.00;;;;;;4862770;29;20196;-62
2022/06/25 08:42:35;;;;;;;0.10;0.10;;;21.20;64.10;;;;;;4899243;29;20218;-62
2022/06/25 08:45:00;;;;;;;0.20;0.20;;;21.30;66.90;;;;;;4875644;29;20208;-62
2022/06/25 08:47:26;;;;;;;0.47;0.30;;;21.30;64.60;;;;;;4850407;29;20185;-63
2022/06/25 08:49:53;;;;;;;0.40;0.30;;;21.30;63.50;;;;;;4868625;29;20191;-63
2022/06/25 08:52:19;;;;;;;0.40;0.20;;;21.40;62.20;;;;;;4875341;29;20198;-63
2022/06/25 08:54:46;;;;;;;0.30;0.20;;;21.50;59.50;;;;;;4869229;29;20203;-64
2022/06/25 08:57:12;;;;;;;0.33;0.07;;;21.60;63.50;;;;;;4868653;29;20241;-63
2022/06/25 08:59:38;;;;;;;0.30;0.30;;;21.70;60.40;;;;;;4868349;29;20192;-64
2022/06/25 09:02:04;;;;;;;0.20;0.20;;;21.70;59.30;;;;;;4883853;29;20188;-64
2022/06/25 09:04:31;;;;;;;0.13;0.10;;;21.80;61.90;;;;;;4849824;29;20196;-64
2022/06/25 09:07:21;;;;;;;0.73;0.73;;;21.80;58.10;;;;;;4875793;29;20243;-64
2022/06/25 09:09:49;;;;;;;0.20;0.20;;;21.90;58.60;;;;;;4855191;29;20208;-63
2022/06/25 09:12:15;;;;;;;0.20;0.20;;;21.90;56.30;;;;;;4847374;29;20192;-63
2022/06/25 09:14:42;;;;;;;0.40;0.30;;;22.00;58.80;;;;;;4869494;29;20203;-63
2022/06/25 09:17:12;;;;;;;0.27;0.20;;;22.10;60.00;;;;;;4873635;29;20205;-63
2022/06/25 09:19:50;;;;;;;0.30;0.30;;;22.10;60.40;;;;;;4880171;29;20209;-63
2022/06/25 09:22:18;;;;;;;0.30;0.17;;;22.10;60.10;;;;;;4881156;29;20192;-63
2022/06/25 09:24:55;;;;;;;0.13;0.13;;;22.10;61.20;;;;;;4883958;29;20278;-63
2022/06/25 09:27:40;;;;;;;0.30;0.20;;;22.10;61.60;;;;;;4872793;29;20236;-63
2022/06/25 09:30:08;;;;;;;0.33;0.23;;;22.10;60.20;;;;;;4896867;29;20271;-63
2022/06/25 09:32:41;;;;;;;0.30;0.20;;;22.10;62.20;;;;;;4882532;29;20231;-63
2022/06/25 09:35:07;;;;;;;0.20;0.20;;;22.20;66.20;;;;;;4874629;29;20188;-62
2022/06/25 09:37:33;;;;;;;0.87;0.30;;;22.20;61.30;;;;;;4847258;29;20206;-62
2022/06/25 09:39:59;;;;;;;0.57;0.57;;;22.20;62.40;;;;;;4856766;29;20196;-63
2022/06/25 09:42:31;;;;;;;0.40;0.33;;;22.30;63.70;;;;;;4878116;29;20216;-63
2022/06/25 09:45:09;;;;;;;0.60;0.20;;;22.30;67.10;;;;;;4882499;29;20192;-63
2022/06/25 09:47:42;;;;;;;2.63;1.33;;;22.30;65.10;;;;;;4887170;29;20187;-63
2022/06/25 09:50:17;;;;;;;0.40;0.40;;;22.30;69.10;;;;;;4875800;29;20191;-63
2022/06/25 09:52:56;;;;;;;0.40;0.40;;;22.30;67.70;;;;;;4871030;29;20215;-63
2022/06/25 09:55:24;;;;;;;0.50;0.30;;;22.50;62.90;;;;;;4879702;29;20196;-63
2022/06/25 09:57:51;;;;;;;0.43;0.43;;;22.50;63.30;;;;;;4883757;29;20188;-63
2022/06/25 10:00:19;;;;;;;0.23;0.23;;;22.40;64.50;;;;;;4852695;29;20200;-64
2022/06/25 10:02:49;;;;;;;0.23;0.23;;;22.50;62.40;;;;;;4870957;29;20217;-64
2022/06/25 10:05:37;;;;;;;0.30;0.30;;;22.40;65.30;;;;;;4885956;29;20195;-63
2022/06/25 10:08:09;;;;;;;0.20;0.20;;;22.50;67.20;;;;;;4890092;29;20199;-63
2022/06/25 10:10:42;;;;;;;0.40;0.30;;;22.50;61.80;;;;;;4877305;29;20204;-63
2022/06/25 10:13:08;;;;;;;1.00;0.20;;;22.50;61.00;;;;;;4885747;29;20592;-63
2022/06/25 10:15:34;;;;;;;1.00;0.90;;;22.50;61.00;;;;;;4882886;29;20203;-63
2022/06/25 10:18:03;;;;;;;0.80;0.30;;;22.60;61.40;;;;;;4882046;29;20188;-64
2022/06/25 10:20:30;;;;;;;1.27;0.20;;;22.70;61.40;;;;;;4867522;29;20201;-63
2022/06/25 10:22:56;;;;;;;0.10;0.10;;;22.70;61.50;;;;;;4896725;29;20260;-64
2022/06/25 10:25:25;;;;;;;0.37;0.33;;;22.70;61.00;;;;;;4869929;29;20218;-63
2022/06/25 10:28:02;;;;;;;2.53;0.57;;;22.70;59.50;;;;;;4877754;29;20409;-63
2022/06/25 10:30:47;;;;;;;0.40;0.30;;;22.70;65.30;;;;;;4867102;29;20192;-62
2022/06/25 10:33:15;;;;;;;0.90;0.37;;;22.60;69.00;;;;;;4881156;29;20506;-63
2022/06/25 10:35:41;;;;;;;2.77;0.60;;;22.60;68.70;;;;;;4873871;29;20231;-63
2022/06/25 10:38:11;;;;;;;0.27;0.27;;;22.60;70.30;;;;;;4864040;29;20227;-63
2022/06/25 10:40:49;;;;;;;0.50;0.33;;;22.60;64.90;;;;;;4881231;29;20278;-62
2022/06/25 10:43:33;;;;;;;0.30;0.30;;;22.60;60.80;;;;;;4879206;29;20229;-63
2022/06/25 10:45:59;;;;;;;0.30;0.30;;;22.70;62.60;;;;;;4882131;29;20195;-62
2022/06/25 10:48:29;;;;;;;0.40;0.40;;;22.90;63.30;;;;;;4864254;29;20198;-63
2022/06/25 10:50:55;;;;;;;2.40;0.53;;;23.30;58.60;;;;;;4871788;29;20216;-62
2022/06/25 10:53:23;;;;;;;0.63;0.20;;;23.50;63.30;;;;;;4869121;29;20236;-63
2022/06/25 10:55:49;;;;;;;0.23;0.23;;;23.60;61.60;;;;;;4888601;29;20319;-62
2022/06/25 10:58:23;;;;;;;0.20;0.20;;;23.70;63.00;;;;;;4881475;29;20279;-63
2022/06/25 11:00:58;;;;;;;0.30;0.30;;;23.70;65.20;;;;;;4886240;29;20264;-63
2022/06/25 11:03:27;;;;;;;0.10;0.10;;;23.60;62.10;;;;;;4891637;29;20223;-63
2022/06/25 11:05:53;;;;;;;0.47;0.23;;;23.50;59.70;;;;;;4895754;29;20189;-63
2022/06/25 11:08:22;;;;;;;1.40;0.40;;;23.50;57.70;;;;;;4893119;29;20208;-63
2022/06/25 11:10:48;;;;;;;1.20;0.30;;;23.60;60.60;;;;;;4876400;29;20194;-63
2022/06/25 11:13:14;;;;;;;0.40;0.40;;;23.70;56.90;;;;;;4867124;29;20286;-63
2022/06/25 11:15:42;;;;;;;0.20;0.20;;;23.70;60.60;;;;;;4866461;29;20187;-63
2022/06/25 11:18:13;;;;;;;0.20;0.20;;;23.70;60.20;;;;;;4881647;29;20215;-64
2022/06/25 11:20:40;;;;;;;0.70;0.40;;;23.90;63.50;;;;;;4882066;29;20192;-63
2022/06/25 11:23:11;;;;;;;0.40;0.30;;;24.00;56.30;;;;;;4869473;29;20254;-63
2022/06/25 11:28:49;;;;;;;2.10;0.30;;;24.20;53.80;;;;;;4893780;29;20277;-63
2022/06/25 11:31:15;;;;;;;0.40;0.20;;;24.40;57.20;;;;;;4871903;29;20191;-64
2022/06/25 11:33:43;;;;;;;0.30;0.20;;;24.70;55.90;;;;;;4887195;29;20192;-63
2022/06/25 11:36:13;;;;;;;0.30;0.30;;;24.80;54.20;;;;;;4868269;29;20197;-64
2022/06/25 11:38:44;;;;;;;0.40;0.40;;;25.00;54.00;;;;;;4878582;29;20223;-64
2022/06/25 11:41:27;;;;;;;0.57;0.30;;;25.20;51.60;;;;;;4880030;29;20270;-63
2022/06/25 11:44:07;;;;;;;0.40;0.40;;;25.40;55.40;;;;;;4857822;29;20353;-63
2022/06/25 11:46:35;;;;;;;0.40;0.40;;;25.70;56.50;;;;;;4882373;29;20287;-63
2022/06/25 11:49:04;;;;;;;1.30;0.30;;;25.70;50.10;;;;;;4859357;29;20250;-63
2022/06/25 11:51:31;;;;;;;1.53;0.30;;;25.70;49.50;;;;;;4871911;29;20191;-64
2022/06/25 11:54:02;;;;;;;2.67;0.40;;;25.70;51.30;;;;;;4856891;29;20216;-63
2022/06/25 11:56:28;;;;;;;0.30;0.30;;;25.70;51.60;;;;;;4865146;29;20195;-63
2022/06/25 11:58:54;;;;;;;0.40;0.30;;;25.60;49.60;;;;;;4871860;29;20195;-63
2022/06/25 12:01:28;;;;;;;0.87;0.30;;;25.50;50.30;;;;;;4847512;29;20204;-63
2022/06/25 12:03:54;;;;;;;0.20;0.20;;;25.50;52.80;;;;;;4871170;29;20224;-64
2022/06/25 12:06:22;;;;;;;0.20;0.20;;;25.50;51.00;;;;;;4865635;29;20199;-64
2022/06/25 12:08:48;;;;;;;1.37;0.17;;;25.50;51.90;;;;;;4877628;29;20206;-65
2022/06/25 12:11:14;;;;;;;0.20;0.20;;;25.50;53.20;;;;;;4865735;29;20196;-65
2022/06/25 12:13:39;;;;;;;0.47;0.30;;;25.60;51.30;;;;;;4854120;29;20196;-67
2022/06/25 12:16:05;;;;;;;0.30;0.30;;;26.00;48.50;;;;;;4857447;29;20203;-63
2022/06/25 12:18:37;;;;;;;0.20;0.20;;;26.20;46.80;;;;;;4858862;29;20248;-63
2022/06/25 12:21:04;;;;;;;0.83;0.30;;;26.50;50.90;;;;;;4868246;29;20188;-63
2022/06/25 12:23:30;;;;;;;0.53;0.50;;;26.40;47.60;;;;;;4893908;29;20216;-63
2022/06/25 12:25:56;;;;;;;0.30;0.17;;;26.00;43.70;;;;;;4876426;29;20247;-63
2022/06/25 12:28:35;;;;;;;0.30;0.30;;;25.80;47.70;;;;;;4879788;29;20287;-63
2022/06/25 12:31:09;;;;;;;0.53;0.53;;;25.80;49.20;;;;;;4898481;29;20274;-63
2022/06/25 12:33:34;;;;;;;2.37;0.40;;;25.70;48.70;;;;;;4879297;29;20195;-63
2022/06/25 12:36:00;;;;;;;0.30;0.30;;;25.60;49.90;;;;;;4878533;29;20251;-63
2022/06/25 12:38:25;;;;;;;1.23;0.20;;;25.60;49.10;;;;;;4881070;29;20279;-63
2022/06/25 12:40:51;;;;;;;0.20;0.10;;;25.60;51.90;;;;;;4862390;29;20201;-63
2022/06/25 12:43:18;;;;;;;0.87;0.40;;;25.60;50.30;;;;;;4869132;29;20302;-63
2022/06/25 12:45:47;;;;;;;0.13;0.13;;;25.60;53.50;;;;;;4868259;29;20204;-63
2022/06/25 12:48:24;;;;;;;2.20;0.40;;;25.60;54.30;;;;;;4883245;29;20195;-63
2022/06/25 12:50:50;;;;;;;0.20;0.20;;;25.50;52.10;;;;;;4868649;29;20184;-63
2022/06/25 12:53:16;;;;;;;0.50;0.37;;;25.40;51.10;;;;;;4870735;29;20195;-64
2022/06/25 12:55:49;;;;;;;0.83;0.40;;;25.50;52.10;;;;;;4872390;29;20207;-64
2022/06/25 12:58:16;;;;;;;0.30;0.20;;;25.50;54.40;;;;;;4864748;29;20287;-64
2022/06/25 13:00:45;;;;;;;1.97;0.47;;;25.50;49.00;;;;;;4874671;29;20196;-64
2022/06/25 13:03:11;;;;;;;1.70;0.30;;;25.50;49.20;;;;;;4868215;29;20212;-64
2022/06/25 13:05:38;;;;;;;0.20;0.20;;;25.50;49.30;;;;;;4884525;29;20255;-65
2022/06/25 13:08:04;;;;;;;0.30;0.30;;;25.50;47.70;;;;;;4873826;29;20286;-64